Govan, Canada
Current Conditions -  °F | °C
As of 7:00 AM on Thursday 27 Nov 2014 (Local Time) from CYQR Reporting Station
Overcast Overcast  
Wind Chill: -22°   Ceiling: 900
Heat Index: -13°   Visibility: 15mi
Dew Point: -15°   Wind: 14mph
Humidity: 85%   Direction: 140°SE
Pressure: 30.13"   Gusts: NA
Location:  51.32°N, 105°W
Report Text: CYQR 271300Z 14012KT 15SM OVC009 M13/M15 A3013 RMK SC8 SLP256
Loading
Personal Weather Stations






























Interactive Weather Map New forecast layout! Learn more

10-Day Weather Forecast

Advertisements
Track Severe Weather on mobile